Accedi per prenotare

Caricamento...

Situazione Metar e Taf aeroporto Pisa - Effemeridi Aeroporto Lucca

[Source: ADDS]
METAR
LIRP 282245Z 22003KT CAVOK 08/08 Q1015 NOSIG =
LIRP 281700Z 2818/2918 29009KT 9999 SCT060 BECMG 2817/2819 VRB04KT TEMPO 2821/2905 4000 BR
TAF
LIRP 281700Z 2818/2918 29009KT 9999 SCT060 BECMG 2817/2819 VRB04KT TEMPO 2821/2905 4000 BR =
SR / SS: 05:08 / 17:41 UTC (Effemeridi LIQL 2020-03-28)